Time;durP1;ratioP1;P1;durP2;ratioP2;P2;SDS_P1;SDS_P2;PMS_P1;PMS_P2;Temp;Humidity;BMP_temperature;BMP_pressure;BME280_temperature;BME280_humidity;BME280_pressure;Samples;Min_cycle;Max_cycle;Signal;HPM_P1;HPM_P2
2024/01/31 00:02:05;;;;;;;24.15;13.70;;;;;;;;;;5078346;28;20956;-77
2024/01/31 00:04:31;;;;;;;23.98;13.00;;;;;;;;;;5071767;28;20089;-77
2024/01/31 00:06:56;;;;;;;22.73;12.38;;;;;;;;;;5072056;28;20060;-77
2024/01/31 00:09:21;;;;;;;22.70;12.77;;;;;;;;;;5071559;28;20106;-77
2024/01/31 00:11:46;;;;;;;22.77;13.80;;;;;;;;;;5072476;28;20107;-76
2024/01/31 00:14:15;;;;;;;24.27;13.77;;;;;;;;;;5071406;28;20405;-76
2024/01/31 00:16:42;;;;;;;20.25;13.00;;;;;;;;;;5074421;28;20027;-77
2024/01/31 00:19:07;;;;;;;21.30;11.05;;;;;;;;;;5071272;28;20035;-77
2024/01/31 00:21:32;;;;;;;23.30;11.75;;;;;;;;;;5073504;28;20032;-76
2024/01/31 00:23:57;;;;;;;16.42;10.38;;;;;;;;;;5069768;28;20040;-76
2024/01/31 00:26:23;;;;;;;16.73;9.55;;;;;;;;;;5071177;28;20370;-77
2024/01/31 00:28:49;;;;;;;17.90;9.75;;;;;;;;;;5077729;28;20115;-76
2024/01/31 00:31:14;;;;;;;13.38;8.60;;;;;;;;;;5072513;28;20036;-76
2024/01/31 00:33:39;;;;;;;13.90;8.48;;;;;;;;;;5075689;28;20028;-77
2024/01/31 00:36:04;;;;;;;17.17;11.02;;;;;;;;;;5069911;28;20578;-77
2024/01/31 00:38:30;;;;;;;15.00;8.75;;;;;;;;;;5071509;28;20043;-77
2024/01/31 00:40:55;;;;;;;16.70;9.38;;;;;;;;;;5072186;28;20032;-76
2024/01/31 00:43:20;;;;;;;15.20;9.38;;;;;;;;;;5070874;28;20557;-77
2024/01/31 00:45:45;;;;;;;17.60;9.50;;;;;;;;;;5073732;28;20138;-76
2024/01/31 00:48:10;;;;;;;14.70;8.60;;;;;;;;;;5073333;28;20085;-76
2024/01/31 00:50:35;;;;;;;14.80;9.00;;;;;;;;;;5072210;28;20032;-77
2024/01/31 00:53:00;;;;;;;13.10;8.20;;;;;;;;;;5079326;28;20408;-77
2024/01/31 00:55:26;;;;;;;16.65;9.65;;;;;;;;;;5076752;28;20062;-77
2024/01/31 00:57:51;;;;;;;15.30;9.10;;;;;;;;;;5079110;28;20388;-77
2024/01/31 01:00:17;;;;;;;13.52;8.25;;;;;;;;;;5078328;28;20086;-77
2024/01/31 01:02:43;;;;;;;14.35;8.80;;;;;;;;;;5076686;28;20028;-77
2024/01/31 01:05:08;;;;;;;12.27;7.68;;;;;;;;;;5070593;28;20106;-77
2024/01/31 01:07:36;;;;;;;17.92;9.80;;;;;;;;;;5071115;28;20027;-76
2024/01/31 01:10:02;;;;;;;13.38;8.10;;;;;;;;;;5070133;28;20094;-77
2024/01/31 01:12:27;;;;;;;13.07;7.68;;;;;;;;;;5070473;28;20032;-77
2024/01/31 01:14:52;;;;;;;11.27;7.63;;;;;;;;;;5070408;28;20078;-77
2024/01/31 01:17:17;;;;;;;13.48;8.02;;;;;;;;;;5070536;28;20040;-77
2024/01/31 01:19:42;;;;;;;19.52;12.23;;;;;;;;;;5070405;28;20055;-77
2024/01/31 01:22:07;;;;;;;13.52;7.78;;;;;;;;;;5071530;28;20447;-77
2024/01/31 01:24:33;;;;;;;10.77;6.35;;;;;;;;;;5070160;28;20032;-77
2024/01/31 01:26:58;;;;;;;12.77;7.13;;;;;;;;;;5070354;28;20475;-77
2024/01/31 01:29:23;;;;;;;10.38;6.00;;;;;;;;;;5070008;28;20947;-77
2024/01/31 01:31:48;;;;;;;10.65;6.35;;;;;;;;;;5073906;28;20042;-77
2024/01/31 01:34:13;;;;;;;18.35;8.77;;;;;;;;;;5072304;28;20033;-77
2024/01/31 01:36:38;;;;;;;11.38;7.70;;;;;;;;;;5071165;28;20028;-77
2024/01/31 01:39:04;;;;;;;11.35;7.53;;;;;;;;;;5070348;28;20021;-77
2024/01/31 01:41:29;;;;;;;12.85;7.93;;;;;;;;;;5070603;28;20039;-77
2024/01/31 01:43:54;;;;;;;12.73;7.15;;;;;;;;;;5070018;28;20328;-77
2024/01/31 01:46:22;;;;;;;13.93;6.95;;;;;;;;;;5070408;28;20017;-77
2024/01/31 01:48:49;;;;;;;10.80;6.70;;;;;;;;;;5070634;28;20124;-77
2024/01/31 01:51:18;;;;;;;9.73;5.53;;;;;;;;;;5070474;28;20060;-77
2024/01/31 01:53:44;;;;;;;15.15;7.43;;;;;;;;;;5069898;28;20032;-77
2024/01/31 01:56:09;;;;;;;12.07;7.28;;;;;;;;;;5070119;28;20564;-77
2024/01/31 01:58:35;;;;;;;10.18;5.82;;;;;;;;;;5070364;28;20115;-77
2024/01/31 02:01:01;;;;;;;12.52;7.22;;;;;;;;;;5070221;28;20037;-77
2024/01/31 02:03:29;;;;;;;10.20;6.13;;;;;;;;;;5073843;28;20024;-77
2024/01/31 02:05:56;;;;;;;9.70;6.30;;;;;;;;;;5071672;28;20420;-77
2024/01/31 02:08:21;;;;;;;12.18;7.22;;;;;;;;;;5069913;28;20538;-77
2024/01/31 02:10:46;;;;;;;12.05;6.65;;;;;;;;;;5069888;28;20037;-77
2024/01/31 02:13:11;;;;;;;9.43;6.20;;;;;;;;;;5072590;28;20042;-77
2024/01/31 02:15:36;;;;;;;11.00;6.85;;;;;;;;;;5077378;28;20036;-77
2024/01/31 02:18:02;;;;;;;11.05;6.78;;;;;;;;;;5073057;28;20073;-77
2024/01/31 02:20:28;;;;;;;12.88;6.93;;;;;;;;;;5081140;28;20028;-77
2024/01/31 02:22:55;;;;;;;13.95;8.02;;;;;;;;;;5075722;28;20493;-77
2024/01/31 02:25:20;;;;;;;11.75;7.13;;;;;;;;;;5073507;28;20028;-77
2024/01/31 02:27:45;;;;;;;10.43;6.82;;;;;;;;;;5073350;28;20082;-77
2024/01/31 02:30:11;;;;;;;9.85;5.90;;;;;;;;;;5080940;28;20068;-77
2024/01/31 02:32:36;;;;;;;11.98;6.60;;;;;;;;;;5078085;28;20078;-77
2024/01/31 02:35:01;;;;;;;11.38;7.07;;;;;;;;;;5073593;28;20592;-77
2024/01/31 02:37:26;;;;;;;13.20;7.45;;;;;;;;;;5073519;28;20039;-77
2024/01/31 02:39:52;;;;;;;13.32;7.20;;;;;;;;;;5081917;28;20097;-77
2024/01/31 02:42:17;;;;;;;12.32;6.80;;;;;;;;;;5077828;28;20029;-76
2024/01/31 02:44:42;;;;;;;13.32;6.93;;;;;;;;;;5072995;28;20021;-77
2024/01/31 02:47:07;;;;;;;9.52;6.70;;;;;;;;;;5073411;28;20506;-77
2024/01/31 02:49:32;;;;;;;16.30;7.75;;;;;;;;;;5073042;28;20096;-77
2024/01/31 02:51:58;;;;;;;11.05;7.15;;;;;;;;;;5083554;28;20099;-77
2024/01/31 02:54:23;;;;;;;14.40;8.63;;;;;;;;;;5073882;28;20454;-77
2024/01/31 02:56:48;;;;;;;12.80;7.65;;;;;;;;;;5073334;28;20052;-77
2024/01/31 02:59:13;;;;;;;12.60;6.90;;;;;;;;;;5073373;28;20501;-77
2024/01/31 03:01:43;;;;;;;13.15;8.02;;;;;;;;;;5086254;28;20481;-77
2024/01/31 03:04:08;;;;;;;11.40;7.95;;;;;;;;;;5080305;28;20039;-77
2024/01/31 03:06:33;;;;;;;12.07;7.50;;;;;;;;;;5078923;28;20036;-77
2024/01/31 03:08:58;;;;;;;12.43;7.60;;;;;;;;;;5073056;28;20649;-77
2024/01/31 03:11:23;;;;;;;12.20;7.75;;;;;;;;;;5079760;28;20078;-77
2024/01/31 03:13:50;;;;;;;11.82;8.00;;;;;;;;;;5072292;28;20043;-77
2024/01/31 03:16:15;;;;;;;15.27;7.95;;;;;;;;;;5072842;28;20071;-77
2024/01/31 03:18:41;;;;;;;12.20;7.00;;;;;;;;;;5076296;28;20052;-77
2024/01/31 03:21:06;;;;;;;13.32;7.72;;;;;;;;;;5076708;28;20286;-77
2024/01/31 03:23:31;;;;;;;13.10;7.38;;;;;;;;;;5072550;28;20041;-77
2024/01/31 03:25:56;;;;;;;11.60;7.03;;;;;;;;;;5072880;28;20036;-77
2024/01/31 03:28:23;;;;;;;12.02;8.00;;;;;;;;;;5072419;28;20043;-77
2024/01/31 03:30:49;;;;;;;17.10;8.55;;;;;;;;;;5077517;28;20040;-76
2024/01/31 03:33:15;;;;;;;12.45;7.70;;;;;;;;;;5077354;28;20071;-77
2024/01/31 03:35:40;;;;;;;14.27;8.43;;;;;;;;;;5072946;28;20380;-77
2024/01/31 03:38:05;;;;;;;14.93;8.32;;;;;;;;;;5072897;28;20032;-77
2024/01/31 03:40:30;;;;;;;14.05;8.50;;;;;;;;;;5078683;28;20064;-77
2024/01/31 03:42:55;;;;;;;13.85;9.07;;;;;;;;;;5076144;28;20369;-77
2024/01/31 03:45:21;;;;;;;13.32;8.20;;;;;;;;;;5072062;28;20691;-77
2024/01/31 03:47:46;;;;;;;11.65;7.20;;;;;;;;;;5072460;28;20320;-77
2024/01/31 03:50:11;;;;;;;11.82;7.43;;;;;;;;;;5071804;28;20519;-76
2024/01/31 03:52:36;;;;;;;11.10;6.15;;;;;;;;;;5079720;28;20036;-77
2024/01/31 03:55:02;;;;;;;14.02;8.10;;;;;;;;;;5072089;28;20036;-77
2024/01/31 03:57:27;;;;;;;12.30;7.00;;;;;;;;;;5071836;28;20539;-77
2024/01/31 03:59:52;;;;;;;11.07;7.32;;;;;;;;;;5071642;28;20033;-76
2024/01/31 04:02:17;;;;;;;13.07;7.65;;;;;;;;;;5081427;28;20036;-77
2024/01/31 04:04:43;;;;;;;10.32;7.28;;;;;;;;;;5073003;28;20028;-77
2024/01/31 04:07:08;;;;;;;10.25;6.35;;;;;;;;;;5076024;28;20469;-77
2024/01/31 04:09:33;;;;;;;16.70;7.65;;;;;;;;;;5071748;28;20032;-77
2024/01/31 04:11:59;;;;;;;10.35;6.30;;;;;;;;;;5078837;28;20404;-77
2024/01/31 04:14:24;;;;;;;11.32;6.53;;;;;;;;;;5076522;28;20035;-77
2024/01/31 04:16:49;;;;;;;10.57;6.90;;;;;;;;;;5071732;28;20432;-77
2024/01/31 04:19:14;;;;;;;13.10;7.65;;;;;;;;;;5072468;28;20031;-77
2024/01/31 04:21:40;;;;;;;11.32;6.38;;;;;;;;;;5077918;28;20051;-77
2024/01/31 04:24:05;;;;;;;9.98;6.63;;;;;;;;;;5071203;28;20025;-77
2024/01/31 04:26:30;;;;;;;11.35;6.95;;;;;;;;;;5072647;28;20457;-78
2024/01/31 04:28:55;;;;;;;9.35;6.50;;;;;;;;;;5075037;28;20110;-77
2024/01/31 04:31:20;;;;;;;9.55;5.82;;;;;;;;;;5081134;28;20030;-77
2024/01/31 04:33:46;;;;;;;9.18;5.90;;;;;;;;;;5082015;28;20044;-77
2024/01/31 04:36:11;;;;;;;8.57;5.68;;;;;;;;;;5069996;28;20045;-78
2024/01/31 04:38:36;;;;;;;8.63;5.15;;;;;;;;;;5070848;28;20032;-77
2024/01/31 04:41:02;;;;;;;9.77;5.38;;;;;;;;;;5074940;28;20104;-77
2024/01/31 04:43:27;;;;;;;8.25;5.35;;;;;;;;;;5067892;28;20033;-77
2024/01/31 04:45:52;;;;;;;9.73;5.25;;;;;;;;;;5070241;28;20058;-77
2024/01/31 04:48:17;;;;;;;9.15;5.20;;;;;;;;;;5071316;28;20044;-77
2024/01/31 04:50:43;;;;;;;8.13;5.20;;;;;;;;;;5074307;28;20035;-77
2024/01/31 04:53:08;;;;;;;9.10;5.57;;;;;;;;;;5073978;28;20051;-77
2024/01/31 04:55:33;;;;;;;10.63;5.30;;;;;;;;;;5077184;28;20098;-77
2024/01/31 04:57:58;;;;;;;11.73;6.00;;;;;;;;;;5080529;28;20036;-77
2024/01/31 05:00:24;;;;;;;10.15;6.00;;;;;;;;;;5079400;28;20028;-77
2024/01/31 05:02:50;;;;;;;11.57;5.85;;;;;;;;;;5088694;28;20396;-78
2024/01/31 05:05:15;;;;;;;9.18;5.78;;;;;;;;;;5074090;28;20024;-77
2024/01/31 05:07:40;;;;;;;10.25;6.18;;;;;;;;;;5071264;28;20031;-78
2024/01/31 05:10:06;;;;;;;9.55;5.82;;;;;;;;;;5075214;28;20111;-77
2024/01/31 05:12:31;;;;;;;8.02;4.57;;;;;;;;;;5077461;28;20105;-77
2024/01/31 05:14:56;;;;;;;10.15;5.30;;;;;;;;;;5070803;28;20059;-78
2024/01/31 05:17:22;;;;;;;7.97;4.90;;;;;;;;;;5071115;28;20488;-77
2024/01/31 05:19:47;;;;;;;10.48;5.53;;;;;;;;;;5070574;28;20036;-77
2024/01/31 05:22:12;;;;;;;8.35;5.20;;;;;;;;;;5074769;28;20488;-77
2024/01/31 05:24:39;;;;;;;11.52;6.28;;;;;;;;;;5070527;28;20035;-78
2024/01/31 05:27:05;;;;;;;8.00;5.55;;;;;;;;;;5071324;28;20560;-78
2024/01/31 05:29:30;;;;;;;10.85;5.82;;;;;;;;;;5076162;28;20088;-77
2024/01/31 05:31:55;;;;;;;10.50;6.10;;;;;;;;;;5084368;28;20480;-77
2024/01/31 05:34:22;;;;;;;9.32;5.70;;;;;;;;;;5072187;28;20051;-77
2024/01/31 05:36:47;;;;;;;8.68;5.72;;;;;;;;;;5070377;28;20396;-77
2024/01/31 05:39:13;;;;;;;10.35;5.03;;;;;;;;;;5070455;28;20033;-78
2024/01/31 05:41:40;;;;;;;9.80;5.05;;;;;;;;;;5076486;28;20111;-78
2024/01/31 05:44:06;;;;;;;9.73;4.82;;;;;;;;;;5070596;28;20484;-77
2024/01/31 05:46:32;;;;;;;6.35;4.03;;;;;;;;;;5069954;28;20082;-77
2024/01/31 05:48:57;;;;;;;6.18;4.55;;;;;;;;;;5069482;28;20021;-77
2024/01/31 05:51:23;;;;;;;7.88;4.10;;;;;;;;;;5075809;28;20552;-77
2024/01/31 05:53:48;;;;;;;7.35;4.13;;;;;;;;;;5068938;28;20040;-77
2024/01/31 05:56:15;;;;;;;7.10;3.72;;;;;;;;;;5070252;28;20024;-77
2024/01/31 05:58:41;;;;;;;6.18;3.63;;;;;;;;;;5070799;28;20103;-77
2024/01/31 06:01:06;;;;;;;7.82;3.92;;;;;;;;;;5074325;28;20540;-77
2024/01/31 06:03:31;;;;;;;6.90;3.33;;;;;;;;;;5075367;28;20424;-77
2024/01/31 06:05:58;;;;;;;6.85;4.00;;;;;;;;;;5070558;28;20021;-77
2024/01/31 06:08:24;;;;;;;7.30;3.63;;;;;;;;;;5070372;28;20443;-77
2024/01/31 06:10:53;;;;;;;7.53;3.65;;;;;;;;;;5072910;28;20503;-78
2024/01/31 06:13:18;;;;;;;6.72;3.72;;;;;;;;;;5071829;28;20047;-78
2024/01/31 06:15:44;;;;;;;6.30;3.30;;;;;;;;;;5070446;28;20033;-78
2024/01/31 06:18:09;;;;;;;5.18;2.95;;;;;;;;;;5070216;28;20093;-75
2024/01/31 06:20:40;;;;;;;6.68;3.20;;;;;;;;;;5070315;28;20111;-77
2024/01/31 06:23:06;;;;;;;5.65;3.28;;;;;;;;;;5074239;28;20024;-77
2024/01/31 06:25:31;;;;;;;8.02;3.17;;;;;;;;;;5070642;28;20021;-77
2024/01/31 06:27:56;;;;;;;5.88;2.70;;;;;;;;;;5070146;28;20043;-77
2024/01/31 06:30:30;;;;;;;10.30;3.55;;;;;;;;;;5069656;28;20493;-78
2024/01/31 06:33:05;;;;;;;4.47;2.90;;;;;;;;;;5079523;28;20040;-77
2024/01/31 06:35:30;;;;;;;5.13;2.90;;;;;;;;;;5078845;28;20032;-77
2024/01/31 06:37:55;;;;;;;6.22;3.20;;;;;;;;;;5070595;28;20032;-77
2024/01/31 06:40:20;;;;;;;4.80;3.22;;;;;;;;;;5069570;28;20033;-76
2024/01/31 06:42:45;;;;;;;5.38;2.88;;;;;;;;;;5074115;28;20097;-78
2024/01/31 06:45:11;;;;;;;5.07;2.45;;;;;;;;;;5070060;28;20037;-77
2024/01/31 06:47:36;;;;;;;5.70;3.17;;;;;;;;;;5070156;28;20098;-77
2024/01/31 06:50:01;;;;;;;4.53;3.05;;;;;;;;;;5073376;28;20020;-77
2024/01/31 06:52:26;;;;;;;4.80;3.05;;;;;;;;;;5076323;28;20109;-77
2024/01/31 06:54:51;;;;;;;5.90;2.60;;;;;;;;;;5070429;28;20047;-78
2024/01/31 06:57:16;;;;;;;4.57;2.90;;;;;;;;;;5069814;28;20437;-76
2024/01/31 06:59:42;;;;;;;5.57;2.35;;;;;;;;;;5073059;28;20024;-77
2024/01/31 07:02:07;;;;;;;4.47;2.50;;;;;;;;;;5082332;28;20484;-77
2024/01/31 07:04:32;;;;;;;4.55;2.58;;;;;;;;;;5082688;28;20024;-78
2024/01/31 07:06:57;;;;;;;5.15;2.90;;;;;;;;;;5073726;28;20512;-77
2024/01/31 07:09:22;;;;;;;5.30;2.45;;;;;;;;;;5073191;28;20032;-77
2024/01/31 07:11:47;;;;;;;4.50;2.78;;;;;;;;;;5078150;28;20120;-77
2024/01/31 07:14:13;;;;;;;5.55;2.70;;;;;;;;;;5081569;28;20037;-76
2024/01/31 07:16:38;;;;;;;5.35;2.63;;;;;;;;;;5073392;28;20435;-77
2024/01/31 07:19:03;;;;;;;5.22;2.60;;;;;;;;;;5073313;28;20040;-77
2024/01/31 07:21:29;;;;;;;4.95;2.80;;;;;;;;;;5075584;28;20039;-77
2024/01/31 07:23:54;;;;;;;6.72;2.97;;;;;;;;;;5073043;28;20488;-78
2024/01/31 07:26:21;;;;;;;4.20;2.50;;;;;;;;;;5074408;28;20060;-77
2024/01/31 07:28:47;;;;;;;5.72;2.97;;;;;;;;;;5075350;28;20062;-77
2024/01/31 07:31:12;;;;;;;4.80;2.90;;;;;;;;;;5077356;28;20024;-77
2024/01/31 07:33:37;;;;;;;5.28;3.10;;;;;;;;;;5078353;28;20032;-77
2024/01/31 07:36:02;;;;;;;5.13;3.28;;;;;;;;;;5077153;28;20032;-77
2024/01/31 07:38:28;;;;;;;5.40;3.53;;;;;;;;;;5071865;28;20489;-77
2024/01/31 07:40:53;;;;;;;5.97;3.35;;;;;;;;;;5074675;28;20401;-77
2024/01/31 07:43:18;;;;;;;6.45;2.88;;;;;;;;;;5074733;28;20028;-77
2024/01/31 07:45:43;;;;;;;6.07;3.60;;;;;;;;;;5072934;28;20039;-76
2024/01/31 07:48:11;;;;;;;5.90;3.50;;;;;;;;;;5073539;28;20025;-78
2024/01/31 07:50:36;;;;;;;5.05;3.17;;;;;;;;;;5076882;28;20089;-77
2024/01/31 07:53:02;;;;;;;4.82;3.40;;;;;;;;;;5076992;28;20044;-77
2024/01/31 07:55:27;;;;;;;6.25;3.05;;;;;;;;;;5071184;28;20048;-77
2024/01/31 07:57:52;;;;;;;6.85;3.65;;;;;;;;;;5072565;28;20039;-77
2024/01/31 08:00:18;;;;;;;6.43;3.88;;;;;;;;;;5072127;28;20404;-77
2024/01/31 08:02:44;;;;;;;6.07;3.47;;;;;;;;;;5080869;28;20074;-77
2024/01/31 08:05:09;;;;;;;6.32;3.53;;;;;;;;;;5071064;28;20029;-77
2024/01/31 08:07:34;;;;;;;5.35;3.30;;;;;;;;;;5072418;28;20020;-77
2024/01/31 08:09:59;;;;;;;6.10;2.83;;;;;;;;;;5073861;28;20028;-77
2024/01/31 08:12:24;;;;;;;5.93;3.97;;;;;;;;;;5075834;28;20032;-77
2024/01/31 08:14:50;;;;;;;5.75;3.90;;;;;;;;;;5072565;28;20498;-76
2024/01/31 08:17:16;;;;;;;5.80;3.30;;;;;;;;;;5071037;28;20085;-77
2024/01/31 08:19:41;;;;;;;5.68;3.60;;;;;;;;;;5071883;28;20029;-77
2024/01/31 08:22:06;;;;;;;4.97;3.45;;;;;;;;;;5076152;28;20404;-77
2024/01/31 08:24:31;;;;;;;7.57;3.50;;;;;;;;;;5071805;28;20039;-78
2024/01/31 08:26:57;;;;;;;4.90;2.85;;;;;;;;;;5082336;28;20035;-78
2024/01/31 08:29:22;;;;;;;4.82;2.80;;;;;;;;;;5071592;28;20107;-77
2024/01/31 08:31:47;;;;;;;7.43;2.80;;;;;;;;;;5078152;28;20618;-77
2024/01/31 08:34:13;;;;;;;5.18;2.75;;;;;;;;;;5073932;28;20531;-77
2024/01/31 08:36:38;;;;;;;4.70;2.88;;;;;;;;;;5071938;28;20043;-77
2024/01/31 08:39:04;;;;;;;4.53;2.65;;;;;;;;;;5071987;28;20115;-78
2024/01/31 08:41:29;;;;;;;5.78;2.80;;;;;;;;;;5074700;28;20031;-77
2024/01/31 08:43:55;;;;;;;5.00;3.15;;;;;;;;;;5076470;28;20103;-77
2024/01/31 08:46:20;;;;;;;5.97;3.10;;;;;;;;;;5073635;28;20408;-77
2024/01/31 08:48:46;;;;;;;5.18;2.97;;;;;;;;;;5071741;28;20062;-77
2024/01/31 08:51:14;;;;;;;7.10;3.42;;;;;;;;;;5073814;28;20036;-78
2024/01/31 08:53:39;;;;;;;4.93;2.55;;;;;;;;;;5075574;28;20493;-77
2024/01/31 08:56:05;;;;;;;5.30;2.83;;;;;;;;;;5071688;28;20036;-77
2024/01/31 08:58:30;;;;;;;5.70;3.05;;;;;;;;;;5070029;28;20068;-77
2024/01/31 09:00:55;;;;;;;4.93;2.88;;;;;;;;;;5071801;28;20115;-77
2024/01/31 09:03:21;;;;;;;6.57;2.80;;;;;;;;;;5079537;28;20412;-77
2024/01/31 09:05:46;;;;;;;4.40;2.80;;;;;;;;;;5079117;28;20035;-78
2024/01/31 09:08:11;;;;;;;4.85;2.67;;;;;;;;;;5076461;28;20128;-78
2024/01/31 09:10:37;;;;;;;5.05;2.90;;;;;;;;;;5078647;28;20028;-78
2024/01/31 09:13:02;;;;;;;7.05;3.50;;;;;;;;;;5073039;28;20043;-77
2024/01/31 09:15:27;;;;;;;4.22;2.58;;;;;;;;;;5071330;28;20036;-77
2024/01/31 09:17:52;;;;;;;4.80;3.10;;;;;;;;;;5071366;28;20042;-77
2024/01/31 09:20:18;;;;;;;5.63;2.75;;;;;;;;;;5069194;28;20045;-77
2024/01/31 09:22:43;;;;;;;6.85;3.13;;;;;;;;;;5073903;28;20033;-77
2024/01/31 09:25:10;;;;;;;6.00;3.00;;;;;;;;;;5070878;28;20060;-78
2024/01/31 09:27:36;;;;;;;4.45;2.67;;;;;;;;;;5069283;28;20040;-77
2024/01/31 09:30:01;;;;;;;6.03;2.90;;;;;;;;;;5070442;28;20385;-77
2024/01/31 09:32:26;;;;;;;5.15;2.80;;;;;;;;;;5079409;28;20064;-77
2024/01/31 09:34:51;;;;;;;6.30;3.00;;;;;;;;;;5074442;28;20390;-77
2024/01/31 09:37:16;;;;;;;5.13;2.65;;;;;;;;;;5070548;28;20071;-77
2024/01/31 09:39:42;;;;;;;6.07;3.08;;;;;;;;;;5070432;28;20407;-77
2024/01/31 09:42:07;;;;;;;5.95;3.28;;;;;;;;;;5073300;28;20036;-77
2024/01/31 09:44:32;;;;;;;5.85;3.40;;;;;;;;;;5070384;28;20036;-77
2024/01/31 09:46:58;;;;;;;6.03;2.75;;;;;;;;;;5070468;28;20044;-77
2024/01/31 09:49:24;;;;;;;7.28;3.55;;;;;;;;;;5069930;28;20366;-77
2024/01/31 09:51:54;;;;;;;5.50;3.20;;;;;;;;;;5073071;28;20036;-77
2024/01/31 09:54:20;;;;;;;6.22;2.85;;;;;;;;;;5070261;28;20028;-77
2024/01/31 09:56:45;;;;;;;6.53;2.78;;;;;;;;;;5070547;28;20097;-78
2024/01/31 09:59:11;;;;;;;4.18;2.00;;;;;;;;;;5070423;28;20040;-78
2024/01/31 10:01:36;;;;;;;3.17;1.58;;;;;;;;;;5073415;28;20031;-77
2024/01/31 10:04:01;;;;;;;3.85;1.70;;;;;;;;;;5076940;28;20037;-77
2024/01/31 10:06:27;;;;;;;3.17;1.45;;;;;;;;;;5070621;28;20031;-77
2024/01/31 10:08:52;;;;;;;2.53;1.40;;;;;;;;;;5071070;28;20036;-78
2024/01/31 10:11:18;;;;;;;3.45;1.52;;;;;;;;;;5072124;28;20039;-77
2024/01/31 10:13:43;;;;;;;3.05;1.50;;;;;;;;;;5069960;28;20028;-78
2024/01/31 10:16:08;;;;;;;3.78;1.70;;;;;;;;;;5070231;28;20048;-77
2024/01/31 10:18:33;;;;;;;6.43;1.50;;;;;;;;;;5068898;28;20067;-78
2024/01/31 10:20:58;;;;;;;3.10;1.67;;;;;;;;;;5069965;28;20028;-77
2024/01/31 10:23:24;;;;;;;3.20;1.58;;;;;;;;;;5071613;28;20074;-77
2024/01/31 10:25:49;;;;;;;5.03;1.70;;;;;;;;;;5070155;28;20033;-77
2024/01/31 10:28:18;;;;;;;3.70;1.90;;;;;;;;;;5070089;28;20068;-78
2024/01/31 10:30:44;;;;;;;4.72;1.63;;;;;;;;;;5073765;28;20060;-78
2024/01/31 10:33:10;;;;;;;3.92;2.25;;;;;;;;;;5078881;28;20071;-77
2024/01/31 10:35:36;;;;;;;4.95;1.95;;;;;;;;;;5079882;28;20029;-77
2024/01/31 10:38:02;;;;;;;3.45;1.90;;;;;;;;;;5074464;28;20462;-78
2024/01/31 10:40:27;;;;;;;2.70;1.67;;;;;;;;;;5073611;28;20100;-78
2024/01/31 10:42:53;;;;;;;3.92;1.90;;;;;;;;;;5084893;28;20042;-78
2024/01/31 10:45:18;;;;;;;3.63;1.70;;;;;;;;;;5087312;28;20036;-77
2024/01/31 10:47:44;;;;;;;4.10;1.63;;;;;;;;;;5075133;28;20048;-77
2024/01/31 10:50:10;;;;;;;3.92;1.38;;;;;;;;;;5074437;28;20029;-78
2024/01/31 10:52:36;;;;;;;3.78;1.80;;;;;;;;;;5074359;28;20039;-77
2024/01/31 10:55:03;;;;;;;3.03;1.90;;;;;;;;;;5075100;28;20514;-77
2024/01/31 10:57:29;;;;;;;4.20;1.95;;;;;;;;;;5073501;28;20040;-77
2024/01/31 10:59:58;;;;;;;2.92;1.65;;;;;;;;;;5073139;28;20408;-78
2024/01/31 11:02:27;;;;;;;3.70;1.60;;;;;;;;;;5081775;28;20391;-77
2024/01/31 11:04:56;;;;;;;4.25;2.03;;;;;;;;;;5084559;28;20399;-78
2024/01/31 11:07:21;;;;;;;3.58;1.90;;;;;;;;;;5076127;28;20496;-78
2024/01/31 11:09:47;;;;;;;3.95;1.67;;;;;;;;;;5073223;28;20028;-77
2024/01/31 11:12:16;;;;;;;3.42;1.55;;;;;;;;;;5074728;28;20401;-77
2024/01/31 11:14:45;;;;;;;5.10;1.77;;;;;;;;;;5078488;28;20028;-78
2024/01/31 11:17:20;;;;;;;3.95;2.03;;;;;;;;;;5083752;28;20029;-78
2024/01/31 11:19:58;;;;;;;4.15;2.35;;;;;;;;;;5082023;28;20032;-77
2024/01/31 11:22:24;;;;;;;6.32;2.60;;;;;;;;;;5076836;28;20025;-78
2024/01/31 11:24:50;;;;;;;3.92;1.92;;;;;;;;;;5081630;28;20026;-79
2024/01/31 11:27:16;;;;;;;3.97;1.83;;;;;;;;;;5075239;28;20043;-79
2024/01/31 11:29:42;;;;;;;4.38;2.17;;;;;;;;;;5073746;28;20389;-78
2024/01/31 11:32:07;;;;;;;3.67;1.80;;;;;;;;;;5080357;28;20035;-79
2024/01/31 11:34:32;;;;;;;4.03;1.92;;;;;;;;;;5072021;28;20039;-77
2024/01/31 11:36:58;;;;;;;4.05;1.70;;;;;;;;;;5077142;28;20037;-77
2024/01/31 11:39:23;;;;;;;4.55;1.77;;;;;;;;;;5075929;28;20036;-77
2024/01/31 11:41:49;;;;;;;2.97;1.48;;;;;;;;;;5077437;28;20054;-77
2024/01/31 11:44:17;;;;;;;4.10;1.80;;;;;;;;;;5072271;28;20052;-77
2024/01/31 11:46:42;;;;;;;7.70;2.65;;;;;;;;;;5077083;28;20020;-77
2024/01/31 11:49:07;;;;;;;6.88;3.10;;;;;;;;;;5078135;28;20045;-78
2024/01/31 11:51:33;;;;;;;5.90;2.75;;;;;;;;;;5081089;28;20411;-78
2024/01/31 11:53:58;;;;;;;5.47;3.00;;;;;;;;;;5075112;28;20048;-78
2024/01/31 11:56:23;;;;;;;6.55;2.78;;;;;;;;;;5073853;28;20503;-77
2024/01/31 11:58:51;;;;;;;4.28;2.15;;;;;;;;;;5073287;28;20484;-77
2024/01/31 12:01:16;;;;;;;3.95;1.90;;;;;;;;;;5081240;28;20052;-77
2024/01/31 12:03:43;;;;;;;6.10;2.03;;;;;;;;;;5077473;28;20055;-77
2024/01/31 12:06:08;;;;;;;5.55;2.50;;;;;;;;;;5071537;28;20960;-77
2024/01/31 12:08:34;;;;;;;4.47;2.13;;;;;;;;;;5072073;28;20111;-77
2024/01/31 12:10:59;;;;;;;4.60;2.03;;;;;;;;;;5071960;28;20114;-77
2024/01/31 12:13:24;;;;;;;3.70;1.70;;;;;;;;;;5073007;28;20031;-77
2024/01/31 12:15:49;;;;;;;3.90;1.85;;;;;;;;;;5072777;28;20032;-77
2024/01/31 12:18:15;;;;;;;5.80;2.20;;;;;;;;;;5072524;28;20062;-78
2024/01/31 12:20:40;;;;;;;3.72;1.95;;;;;;;;;;5072094;28;20458;-77
2024/01/31 12:23:05;;;;;;;4.07;1.67;;;;;;;;;;5072798;28;20021;-77
2024/01/31 12:25:30;;;;;;;3.80;1.85;;;;;;;;;;5072049;28;20075;-78
2024/01/31 12:27:56;;;;;;;3.67;1.85;;;;;;;;;;5071849;28;20032;-77
2024/01/31 12:30:21;;;;;;;5.82;2.10;;;;;;;;;;5070298;28;20059;-77
2024/01/31 12:32:46;;;;;;;3.05;1.50;;;;;;;;;;5076983;28;20044;-78
2024/01/31 12:35:11;;;;;;;3.00;1.77;;;;;;;;;;5072826;28;20043;-77
2024/01/31 12:37:39;;;;;;;3.35;1.65;;;;;;;;;;5076769;28;20052;-77
2024/01/31 12:40:05;;;;;;;8.95;2.20;;;;;;;;;;5071425;28;20048;-77
2024/01/31 12:42:30;;;;;;;5.00;2.30;;;;;;;;;;5080154;28;20024;-77
2024/01/31 12:44:56;;;;;;;6.65;3.15;;;;;;;;;;5072425;28;20422;-77
2024/01/31 12:47:21;;;;;;;6.80;2.97;;;;;;;;;;5079793;28;20032;-77
2024/01/31 12:49:46;;;;;;;4.57;1.90;;;;;;;;;;5072269;28;20121;-77
2024/01/31 12:52:12;;;;;;;5.25;2.50;;;;;;;;;;5071337;28;20468;-76
2024/01/31 12:54:37;;;;;;;5.00;2.10;;;;;;;;;;5070986;28;20107;-77
2024/01/31 12:57:02;;;;;;;4.97;2.58;;;;;;;;;;5073648;28;20558;-77
2024/01/31 12:59:27;;;;;;;5.93;2.58;;;;;;;;;;5072191;28;20067;-77
2024/01/31 13:01:53;;;;;;;4.60;2.20;;;;;;;;;;5074802;28;20104;-77
2024/01/31 13:04:18;;;;;;;4.30;2.25;;;;;;;;;;5074360;28;20565;-77
2024/01/31 13:06:43;;;;;;;4.20;2.00;;;;;;;;;;5071409;28;20028;-77
2024/01/31 13:09:09;;;;;;;4.05;1.80;;;;;;;;;;5070904;28;20036;-78
2024/01/31 13:11:34;;;;;;;3.33;1.83;;;;;;;;;;5082069;28;20028;-77
2024/01/31 13:14:00;;;;;;;3.72;1.85;;;;;;;;;;5081909;28;20033;-78
2024/01/31 13:16:25;;;;;;;5.10;2.20;;;;;;;;;;5071391;28;20688;-78
2024/01/31 13:18:50;;;;;;;6.10;2.40;;;;;;;;;;5073264;28;20226;-77
2024/01/31 13:21:15;;;;;;;4.07;1.98;;;;;;;;;;5072479;28;20032;-77
2024/01/31 13:23:41;;;;;;;4.90;1.95;;;;;;;;;;5081608;28;20064;-77
2024/01/31 13:26:06;;;;;;;4.65;2.20;;;;;;;;;;5078420;28;20036;-77
2024/01/31 13:28:32;;;;;;;5.05;2.28;;;;;;;;;;5078139;28;20043;-77
2024/01/31 13:30:57;;;;;;;3.30;1.80;;;;;;;;;;5072400;28;20547;-77
2024/01/31 13:33:22;;;;;;;4.97;2.35;;;;;;;;;;5077655;28;20041;-77
2024/01/31 13:35:47;;;;;;;4.47;2.50;;;;;;;;;;5074097;28;20055;-77
2024/01/31 13:38:12;;;;;;;4.00;2.22;;;;;;;;;;5074038;28;20090;-77
2024/01/31 13:40:38;;;;;;;3.95;2.30;;;;;;;;;;5068942;28;20115;-77
2024/01/31 13:43:03;;;;;;;3.00;1.77;;;;;;;;;;5079071;28;20040;-77
2024/01/31 13:45:28;;;;;;;3.83;2.20;;;;;;;;;;5074628;28;20036;-77
2024/01/31 13:47:53;;;;;;;3.78;2.08;;;;;;;;;;5070674;28;20078;-77
2024/01/31 13:50:19;;;;;;;3.50;2.15;;;;;;;;;;5070147;28;20036;-77
2024/01/31 13:52:44;;;;;;;4.10;1.90;;;;;;;;;;5077367;28;20120;-77
2024/01/31 13:55:09;;;;;;;6.85;2.97;;;;;;;;;;5074759;28;20085;-79
2024/01/31 13:57:34;;;;;;;4.82;2.80;;;;;;;;;;5075186;28;20056;-77
2024/01/31 14:00:00;;;;;;;3.53;2.33;;;;;;;;;;5072203;28;20092;-77
2024/01/31 14:02:25;;;;;;;4.47;2.67;;;;;;;;;;5080340;28;20031;-77
2024/01/31 14:04:50;;;;;;;4.28;2.65;;;;;;;;;;5070311;28;20040;-77
2024/01/31 14:07:15;;;;;;;4.13;2.65;;;;;;;;;;5069478;28;20071;-77
2024/01/31 14:09:40;;;;;;;4.10;2.30;;;;;;;;;;5069583;28;20028;-77
2024/01/31 14:12:06;;;;;;;4.38;2.47;;;;;;;;;;5075224;28;20168;-77
2024/01/31 14:14:31;;;;;;;3.80;2.22;;;;;;;;;;5070250;28;20107;-77
2024/01/31 14:16:58;;;;;;;3.47;1.95;;;;;;;;;;5073978;28;20032;-76
2024/01/31 14:19:23;;;;;;;4.95;2.20;;;;;;;;;;5069595;28;20036;-77
2024/01/31 14:21:48;;;;;;;4.28;2.50;;;;;;;;;;5073341;28;20081;-78
2024/01/31 14:24:14;;;;;;;10.27;3.13;;;;;;;;;;5078553;28;20704;-77
2024/01/31 14:26:39;;;;;;;5.22;2.50;;;;;;;;;;5078233;28;20036;-77
2024/01/31 14:29:04;;;;;;;5.28;1.90;;;;;;;;;;5074407;28;20031;-77